createdAt,value
2023-09-21T00:00:14.309Z,0.95
2023-09-21T00:02:49.696Z,1.00
2023-09-21T00:05:23.582Z,1.00
2023-09-21T00:07:50.973Z,1.05
2023-09-21T00:10:18.471Z,0.77
2023-09-21T00:12:44.254Z,1.52
2023-09-21T00:15:13.179Z,1.00
2023-09-21T00:17:39.613Z,0.77
2023-09-21T00:20:22.304Z,0.60
2023-09-21T00:22:48.132Z,0.98
2023-09-21T00:25:16.397Z,0.75
2023-09-21T00:27:42.289Z,1.70
2023-09-21T00:30:08.365Z,1.00
2023-09-21T00:32:41.536Z,1.00
2023-09-21T00:35:11.904Z,0.90
2023-09-21T00:37:38.908Z,0.60
2023-09-21T00:40:18.565Z,0.57
2023-09-21T00:42:45.387Z,1.20
2023-09-21T00:45:13.083Z,0.50
2023-09-21T00:47:43.087Z,0.90
2023-09-21T00:50:11.367Z,0.63
2023-09-21T00:52:49.845Z,0.82
2023-09-21T00:55:18.259Z,0.52
2023-09-21T00:57:46.108Z,0.82
2023-09-21T01:00:14.542Z,0.65
2023-09-21T01:02:43.256Z,0.98
2023-09-21T01:05:18.414Z,0.73
2023-09-21T01:07:48.642Z,0.70
2023-09-21T01:10:16.298Z,0.80
2023-09-21T01:12:48.962Z,0.70
2023-09-21T01:15:15.719Z,0.55
2023-09-21T01:17:42.456Z,1.20
2023-09-21T01:20:30.259Z,0.85
2023-09-21T01:23:05.153Z,1.35
2023-09-21T01:25:30.938Z,0.70
2023-09-21T01:27:56.756Z,1.13
2023-09-21T01:30:23.410Z,1.25
2023-09-21T01:32:49.394Z,0.40
2023-09-21T01:35:16.587Z,0.57
2023-09-21T01:37:42.553Z,0.98
2023-09-21T01:40:15.672Z,0.40
2023-09-21T01:42:41.478Z,0.65
2023-09-21T01:45:14.258Z,1.05
2023-09-21T01:47:40.351Z,0.70
2023-09-21T01:50:10.392Z,0.63
2023-09-21T01:52:36.889Z,1.30
2023-09-21T01:55:05.859Z,0.43
2023-09-21T01:57:32.806Z,0.60
2023-09-21T01:59:58.670Z,0.50
2023-09-21T02:02:24.645Z,0.95
2023-09-21T02:04:50.536Z,1.08
2023-09-21T02:07:16.669Z,0.85
2023-09-21T02:09:42.562Z,0.68
2023-09-21T02:12:08.438Z,0.80
2023-09-21T02:14:34.327Z,1.77
2023-09-21T02:17:00.142Z,1.08
2023-09-21T02:19:26.553Z,0.65
2023-09-21T02:21:52.664Z,0.60
2023-09-21T02:24:18.589Z,1.30
2023-09-21T02:26:44.471Z,0.90
2023-09-21T02:29:13.120Z,1.15
2023-09-21T02:34:04.950Z,1.23
2023-09-21T02:36:32.016Z,1.30
2023-09-21T02:38:57.873Z,0.95
2023-09-21T02:41:23.777Z,0.93
2023-09-21T02:43:49.815Z,0.52
2023-09-21T02:46:15.690Z,0.75
2023-09-21T02:48:41.940Z,0.57
2023-09-21T02:51:08.154Z,1.08
2023-09-21T02:53:34.019Z,0.93
2023-09-21T02:56:00.396Z,1.08
2023-09-21T02:58:26.716Z,1.00
2023-09-21T03:00:52.749Z,0.70
2023-09-21T03:03:21.316Z,1.58
2023-09-21T03:08:18.041Z,0.85
2023-09-21T03:10:45.972Z,1.15
2023-09-21T03:13:16.170Z,1.10
2023-09-21T03:15:44.325Z,1.13
2023-09-21T03:18:10.273Z,1.45
2023-09-21T03:20:37.343Z,1.05
2023-09-21T03:23:09.814Z,0.93
2023-09-21T03:25:42.994Z,1.50
2023-09-21T03:28:13.666Z,1.23
2023-09-21T03:30:47.955Z,1.00
2023-09-21T03:33:16.434Z,0.95
2023-09-21T03:35:43.249Z,1.73
2023-09-21T03:38:18.889Z,1.48
2023-09-21T03:40:45.459Z,1.17
2023-09-21T03:43:15.204Z,1.55
2023-09-21T03:45:43.008Z,0.98
2023-09-21T03:48:10.388Z,1.23
2023-09-21T03:50:37.390Z,1.52
2023-09-21T03:53:09.174Z,1.35
2023-09-21T03:55:36.019Z,1.52
2023-09-21T03:58:02.871Z,1.85
2023-09-21T04:00:34.553Z,1.60
2023-09-21T04:03:02.710Z,1.40
2023-09-21T04:05:34.498Z,1.15
2023-09-21T04:08:00.571Z,1.60
2023-09-21T04:10:27.050Z,1.05
2023-09-21T04:12:55.880Z,0.82
2023-09-21T04:15:26.460Z,1.83
2023-09-21T04:17:52.773Z,1.52
2023-09-21T04:20:19.523Z,1.98
2023-09-21T04:22:48.143Z,1.33
2023-09-21T04:25:14.870Z,0.93
2023-09-21T04:27:42.594Z,1.10
2023-09-21T04:30:10.218Z,1.50
2023-09-21T04:32:38.346Z,1.63
2023-09-21T04:35:05.137Z,1.48
2023-09-21T04:37:31.765Z,1.70
2023-09-21T04:39:59.084Z,1.30
2023-09-21T04:42:24.980Z,1.90
2023-09-21T04:44:50.871Z,0.98
2023-09-21T04:47:16.767Z,1.20
2023-09-21T04:49:42.603Z,1.30
2023-09-21T04:52:08.464Z,1.92
2023-09-21T04:54:34.322Z,1.67
2023-09-21T04:57:00.212Z,1.63
2023-09-21T04:59:26.047Z,1.10
2023-09-21T05:01:51.918Z,1.50
2023-09-21T05:04:18.279Z,1.20
2023-09-21T05:06:44.199Z,1.13
2023-09-21T05:09:10.874Z,1.73
2023-09-21T05:11:39.306Z,1.25
2023-09-21T05:14:06.004Z,1.65
2023-09-21T05:16:32.758Z,1.10
2023-09-21T05:18:58.866Z,1.85
2023-09-21T05:21:24.830Z,0.95
2023-09-21T05:23:50.652Z,0.95
2023-09-21T05:26:16.516Z,1.50
2023-09-21T05:28:43.794Z,2.10
2023-09-21T05:31:10.289Z,3.55
2023-09-21T05:33:36.921Z,1.90
2023-09-21T05:36:05.467Z,3.72
2023-09-21T05:41:03.499Z,2.33
2023-09-21T05:43:29.704Z,2.78
2023-09-21T05:45:55.986Z,2.70
2023-09-21T05:48:22.002Z,1.92
2023-09-21T05:50:48.088Z,1.95
2023-09-21T05:53:13.902Z,2.28
2023-09-21T05:55:44.204Z,1.50
2023-09-21T05:58:10.098Z,1.55
2023-09-21T06:00:36.273Z,1.73
2023-09-21T06:03:02.187Z,2.35
2023-09-21T06:05:30.244Z,1.50
2023-09-21T06:07:58.547Z,1.80
2023-09-21T06:10:26.072Z,0.90
2023-09-21T06:12:52.352Z,1.10
2023-09-21T06:15:18.858Z,1.45
2023-09-21T06:17:46.674Z,1.65
2023-09-21T06:20:13.312Z,2.53
2023-09-21T06:22:39.118Z,1.38
2023-09-21T06:25:08.110Z,1.65
2023-09-21T06:27:34.124Z,1.80
2023-09-21T06:29:59.998Z,1.15
2023-09-21T06:32:26.366Z,1.77
2023-09-21T06:34:52.438Z,1.52
2023-09-21T06:37:21.810Z,1.67
2023-09-21T06:39:47.666Z,1.98
2023-09-21T06:42:15.803Z,2.83
2023-09-21T06:44:42.556Z,1.98
2023-09-21T06:47:08.522Z,3.10
2023-09-21T06:49:36.218Z,2.25
2023-09-21T06:52:03.839Z,1.55
2023-09-21T06:54:29.885Z,2.22
2023-09-21T06:57:03.992Z,2.05
2023-09-21T06:59:31.560Z,1.67
2023-09-21T07:01:57.494Z,1.80
2023-09-21T07:04:23.580Z,2.15
2023-09-21T07:06:51.210Z,2.00
2023-09-21T07:09:17.136Z,1.67
2023-09-21T07:11:43.418Z,1.98
2023-09-21T07:14:09.275Z,1.95
2023-09-21T07:16:35.175Z,1.77
2023-09-21T07:19:01.053Z,2.60
2023-09-21T07:21:26.970Z,2.45
2023-09-21T07:23:52.885Z,1.73
2023-09-21T07:26:19.149Z,2.10
2023-09-21T07:28:46.027Z,3.03
2023-09-21T07:31:12.349Z,2.20
2023-09-21T07:33:38.210Z,2.88
2023-09-21T07:36:04.921Z,1.73
2023-09-21T07:38:30.744Z,2.35
2023-09-21T07:40:57.252Z,2.17
2023-09-21T07:43:23.262Z,2.40
2023-09-21T07:45:54.002Z,2.30
2023-09-21T07:48:20.940Z,1.52
2023-09-21T07:50:47.145Z,2.05
2023-09-21T07:53:13.074Z,2.38
2023-09-21T07:55:38.961Z,1.92
2023-09-21T07:58:04.964Z,2.10
2023-09-21T08:00:30.952Z,2.78
2023-09-21T08:02:56.992Z,1.98
2023-09-21T08:05:23.164Z,1.52
2023-09-21T08:07:52.358Z,1.50
2023-09-21T08:10:18.898Z,2.08
2023-09-21T08:12:45.437Z,1.40
2023-09-21T08:15:11.555Z,1.92
2023-09-21T08:17:38.517Z,1.42
2023-09-21T08:20:06.449Z,2.03
2023-09-21T08:22:33.169Z,1.73
2023-09-21T08:24:59.093Z,1.08
2023-09-21T08:27:36.266Z,1.10
2023-09-21T08:30:06.692Z,1.42
2023-09-21T08:32:33.508Z,2.20
2023-09-21T08:34:59.487Z,1.50
2023-09-21T08:37:25.416Z,2.03
2023-09-21T08:39:51.313Z,1.60
2023-09-21T08:42:17.435Z,2.05
2023-09-21T08:44:44.283Z,1.67
2023-09-21T08:47:31.515Z,1.83
2023-09-21T08:50:03.356Z,1.60
2023-09-21T08:52:33.539Z,2.05
2023-09-21T08:54:59.433Z,1.67
2023-09-21T08:57:25.651Z,1.95
2023-09-21T08:59:55.582Z,2.95
2023-09-21T09:02:24.304Z,2.83
2023-09-21T09:04:51.422Z,2.55
2023-09-21T09:07:18.701Z,2.45
2023-09-21T09:09:46.627Z,2.10
2023-09-21T09:12:25.565Z,2.15
2023-09-21T09:14:53.317Z,2.83
2023-09-21T09:17:19.393Z,2.30
2023-09-21T09:19:48.484Z,2.60
2023-09-21T09:22:17.456Z,2.72
2023-09-21T09:24:49.700Z,2.25
2023-09-21T09:27:16.382Z,2.42
2023-09-21T09:29:52.466Z,3.40
2023-09-21T09:32:19.285Z,2.88
2023-09-21T09:34:47.013Z,3.60
2023-09-21T09:37:16.182Z,2.42
2023-09-21T09:39:43.720Z,2.40
2023-09-21T09:42:13.414Z,2.75
2023-09-21T09:44:47.335Z,2.75
2023-09-21T09:47:16.759Z,3.38
2023-09-21T09:49:44.879Z,3.05
2023-09-21T09:52:14.262Z,2.58
2023-09-21T09:54:40.894Z,2.90
2023-09-21T09:57:14.347Z,2.70
2023-09-21T09:59:45.115Z,3.17
2023-09-21T10:02:14.983Z,3.03
2023-09-21T10:04:42.258Z,2.20
2023-09-21T10:07:09.312Z,2.53
2023-09-21T10:09:36.362Z,3.85
2023-09-21T10:12:05.555Z,2.60
2023-09-21T10:14:37.261Z,2.65
2023-09-21T10:17:05.282Z,2.03
2023-09-21T10:19:37.111Z,1.80
2023-09-21T10:22:26.011Z,1.85
2023-09-21T10:24:55.041Z,2.42
2023-09-21T10:27:24.804Z,1.38
2023-09-21T10:30:02.689Z,1.92
2023-09-21T10:32:44.562Z,2.20
2023-09-21T10:35:14.950Z,1.70
2023-09-21T10:37:40.969Z,1.50
2023-09-21T10:40:10.456Z,2.17
2023-09-21T10:42:37.462Z,1.65
2023-09-21T10:45:10.770Z,2.20
2023-09-21T10:47:36.705Z,3.88
2023-09-21T10:50:07.390Z,5.72
2023-09-21T10:52:35.610Z,3.78
2023-09-21T10:55:01.689Z,3.10
2023-09-21T10:57:29.701Z,1.42
2023-09-21T11:00:11.459Z,2.70
2023-09-21T11:02:41.471Z,2.45
2023-09-21T11:05:08.155Z,2.00
2023-09-21T11:07:34.575Z,2.70
2023-09-21T11:10:01.429Z,2.95
2023-09-21T11:12:27.311Z,2.88
2023-09-21T11:14:53.223Z,1.90
2023-09-21T11:17:19.360Z,2.13
2023-09-21T11:19:46.609Z,1.95
2023-09-21T11:22:13.481Z,2.38
2023-09-21T11:24:42.604Z,2.97
2023-09-21T11:27:12.426Z,2.78
2023-09-21T11:29:40.507Z,2.40
2023-09-21T11:32:12.795Z,1.70
2023-09-21T11:34:40.130Z,2.45
2023-09-21T11:37:09.122Z,2.42
2023-09-21T11:39:48.836Z,1.92
2023-09-21T11:42:19.997Z,2.50
2023-09-21T11:44:52.953Z,3.55
2023-09-21T11:47:22.533Z,2.92
2023-09-21T11:49:53.115Z,3.20
2023-09-21T11:52:19.742Z,3.10
2023-09-21T11:54:45.719Z,3.45
2023-09-21T11:57:11.722Z,3.42
2023-09-21T11:59:42.628Z,3.45
2023-09-21T12:02:10.586Z,3.10
2023-09-21T12:04:38.265Z,3.55
2023-09-21T12:07:05.388Z,3.88
2023-09-21T12:09:31.413Z,2.67
2023-09-21T12:11:58.948Z,3.58
2023-09-21T12:14:24.815Z,2.42
2023-09-21T12:16:54.209Z,1.92
2023-09-21T12:19:20.597Z,3.83
2023-09-21T12:21:47.382Z,2.80
2023-09-21T12:24:13.376Z,3.45
2023-09-21T12:26:42.188Z,3.78
2023-09-21T12:29:09.819Z,3.10
2023-09-21T12:31:56.571Z,2.55
2023-09-21T12:34:23.250Z,3.17
2023-09-21T12:36:49.951Z,3.42
2023-09-21T12:39:16.597Z,2.70
2023-09-21T12:41:43.950Z,2.50
2023-09-21T12:44:13.381Z,3.67
2023-09-21T12:46:39.290Z,3.72
2023-09-21T12:49:05.203Z,3.13
2023-09-21T12:51:34.989Z,3.33
2023-09-21T12:54:02.378Z,2.80
2023-09-21T12:56:28.252Z,3.45
2023-09-21T12:58:56.315Z,2.63
2023-09-21T13:01:23.843Z,3.30
2023-09-21T13:03:50.760Z,2.38
2023-09-21T13:06:17.157Z,2.97
2023-09-21T13:08:43.427Z,3.40
2023-09-21T13:11:09.400Z,3.63
2023-09-21T13:13:38.812Z,4.10
2023-09-21T13:16:08.870Z,4.10
2023-09-21T13:18:41.014Z,3.20
2023-09-21T13:21:08.545Z,2.55
2023-09-21T13:23:36.136Z,2.85
2023-09-21T13:26:02.324Z,2.65
2023-09-21T13:28:28.159Z,3.28
2023-09-21T13:30:54.151Z,4.10
2023-09-21T13:33:20.216Z,2.92
2023-09-21T13:35:46.123Z,3.10
2023-09-21T13:38:12.978Z,2.90
2023-09-21T13:40:39.341Z,3.67
2023-09-21T13:43:05.920Z,4.22
2023-09-21T13:45:32.812Z,3.13
2023-09-21T13:47:58.765Z,3.60
2023-09-21T13:50:24.729Z,3.80
2023-09-21T13:52:50.597Z,3.17
2023-09-21T13:55:19.465Z,2.63
2023-09-21T13:57:47.453Z,2.90
2023-09-21T14:00:13.576Z,3.53
2023-09-21T14:02:40.537Z,3.83
2023-09-21T14:05:07.233Z,3.72
2023-09-21T14:07:33.386Z,3.05
2023-09-21T14:09:59.182Z,3.80
2023-09-21T14:12:26.025Z,4.07
2023-09-21T14:14:51.906Z,2.75
2023-09-21T14:17:17.948Z,2.70
2023-09-21T14:19:43.766Z,2.53
2023-09-21T14:22:09.782Z,2.95
2023-09-21T14:24:35.702Z,3.15
2023-09-21T14:27:01.656Z,2.58
2023-09-21T14:29:28.405Z,3.20
2023-09-21T14:31:54.475Z,2.38
2023-09-21T14:34:20.304Z,3.05
2023-09-21T14:36:46.328Z,2.58
2023-09-21T14:39:12.175Z,3.15
2023-09-21T14:41:38.013Z,2.80
2023-09-21T14:44:04.034Z,3.17
2023-09-21T14:46:29.913Z,3.05
2023-09-21T14:48:55.785Z,2.65
2023-09-21T14:51:21.725Z,2.85
2023-09-21T14:53:47.627Z,2.85
2023-09-21T14:56:13.462Z,2.35
2023-09-21T14:58:39.248Z,3.20
2023-09-21T15:01:05.207Z,2.35
2023-09-21T15:03:31.593Z,2.20
2023-09-21T15:05:57.605Z,2.53
2023-09-21T15:08:24.742Z,3.05
2023-09-21T15:10:54.112Z,2.13
2023-09-21T15:13:21.122Z,2.45
2023-09-21T15:15:47.340Z,2.72
2023-09-21T15:18:15.819Z,2.67
2023-09-21T15:20:42.734Z,2.97
2023-09-21T15:23:08.552Z,2.38
2023-09-21T15:25:34.387Z,2.13
2023-09-21T15:28:00.230Z,2.13
2023-09-21T15:30:26.097Z,2.42
2023-09-21T15:32:52.071Z,2.13
2023-09-21T15:35:17.912Z,2.72
2023-09-21T15:37:43.731Z,2.03
2023-09-21T15:40:09.579Z,2.47
2023-09-21T15:42:35.452Z,1.90
2023-09-21T15:45:01.493Z,2.78
2023-09-21T15:47:27.779Z,2.60
2023-09-21T15:49:53.676Z,2.60
2023-09-21T15:52:19.710Z,2.03
2023-09-21T15:54:45.621Z,2.38
2023-09-21T15:57:11.610Z,2.40
2023-09-21T15:59:37.451Z,1.33
2023-09-21T16:02:04.306Z,3.25
2023-09-21T16:04:30.448Z,1.90
2023-09-21T16:06:56.437Z,1.42
2023-09-21T16:09:22.303Z,2.53
2023-09-21T16:11:48.271Z,2.00
2023-09-21T16:14:14.090Z,2.80
2023-09-21T16:16:39.900Z,3.28
2023-09-21T16:19:06.055Z,1.98
2023-09-21T16:21:34.987Z,1.95
2023-09-21T16:24:01.370Z,2.63
2023-09-21T16:26:29.069Z,3.10
2023-09-21T16:28:54.944Z,1.45
2023-09-21T16:31:20.810Z,2.65
2023-09-21T16:33:47.837Z,1.95
2023-09-21T16:36:14.156Z,1.88
2023-09-21T16:38:40.018Z,2.15
2023-09-21T16:41:07.189Z,2.22
2023-09-21T16:43:33.034Z,2.53
2023-09-21T16:45:59.184Z,2.20
2023-09-21T16:48:25.199Z,1.67
2023-09-21T16:50:52.290Z,3.17
2023-09-21T16:53:18.158Z,2.03
2023-09-21T16:55:44.000Z,2.20
2023-09-21T16:58:09.888Z,2.50
2023-09-21T17:00:36.008Z,2.00
2023-09-21T17:03:03.005Z,3.17
2023-09-21T17:05:29.125Z,2.58
2023-09-21T17:07:55.981Z,2.35
2023-09-21T17:10:23.057Z,1.83
2023-09-21T17:12:50.385Z,2.08
2023-09-21T17:15:17.008Z,2.95
2023-09-21T17:17:44.215Z,1.95
2023-09-21T17:20:11.134Z,2.35
2023-09-21T17:22:38.324Z,2.53
2023-09-21T17:25:05.615Z,2.50
2023-09-21T17:27:32.267Z,3.28
2023-09-21T17:29:59.573Z,3.90
2023-09-21T17:32:25.734Z,3.45
2023-09-21T17:34:51.729Z,2.60
2023-09-21T17:37:18.469Z,2.83
2023-09-21T17:39:44.729Z,3.63
2023-09-21T17:42:10.648Z,4.65
2023-09-21T17:44:36.522Z,4.68
2023-09-21T17:47:05.675Z,3.30
2023-09-21T17:49:34.324Z,2.72
2023-09-21T17:52:01.848Z,3.20
2023-09-21T17:54:28.328Z,3.42
2023-09-21T17:56:54.203Z,3.70
2023-09-21T17:59:20.136Z,3.42
2023-09-21T18:01:46.205Z,2.75
2023-09-21T18:04:12.582Z,3.17
2023-09-21T18:06:38.700Z,3.53
2023-09-21T18:09:08.399Z,3.10
2023-09-21T18:11:38.788Z,3.20
2023-09-21T18:14:05.335Z,2.97
2023-09-21T18:16:31.608Z,3.50
2023-09-21T18:18:57.733Z,3.75
2023-09-21T18:21:24.270Z,4.45
2023-09-21T18:23:51.233Z,3.85
2023-09-21T18:26:17.862Z,3.90
2023-09-21T18:28:44.175Z,3.28
2023-09-21T18:31:14.323Z,3.45
2023-09-21T18:33:41.336Z,3.25
2023-09-21T18:36:07.621Z,3.95
2023-09-21T18:38:34.956Z,3.78
2023-09-21T18:41:01.968Z,3.75
2023-09-21T18:43:29.626Z,4.25
2023-09-21T18:45:58.548Z,3.92
2023-09-21T18:48:24.974Z,4.05
2023-09-21T18:50:51.609Z,4.15
2023-09-21T18:53:20.300Z,3.22
2023-09-21T18:55:49.036Z,4.35
2023-09-21T18:58:14.878Z,3.88
2023-09-21T19:00:40.848Z,4.28
2023-09-21T19:03:07.295Z,4.75
2023-09-21T19:05:33.157Z,4.30
2023-09-21T19:07:59.036Z,4.40
2023-09-21T19:10:24.927Z,3.70
2023-09-21T19:12:51.122Z,3.63
2023-09-21T19:15:18.215Z,4.22
2023-09-21T19:17:45.365Z,4.90
2023-09-21T19:20:12.331Z,4.30
2023-09-21T19:22:39.838Z,4.32
2023-09-21T19:25:06.713Z,4.72
2023-09-21T19:27:33.037Z,4.35
2023-09-21T19:29:59.279Z,5.20
2023-09-21T19:32:26.180Z,4.10
2023-09-21T19:34:52.827Z,3.30
2023-09-21T19:37:18.659Z,4.43
2023-09-21T19:39:46.195Z,3.92
2023-09-21T19:42:13.388Z,3.97
2023-09-21T19:44:39.373Z,3.53
2023-09-21T19:47:05.781Z,3.95
2023-09-21T19:49:31.913Z,3.55
2023-09-21T19:51:57.900Z,3.33
2023-09-21T19:54:24.100Z,3.97
2023-09-21T19:56:50.809Z,3.20
2023-09-21T19:59:17.918Z,3.47
2023-09-21T20:01:44.130Z,2.72
2023-09-21T20:04:10.092Z,2.58
2023-09-21T20:06:36.171Z,2.88
2023-09-21T20:09:03.644Z,3.08
2023-09-21T20:11:29.446Z,2.20
2023-09-21T20:13:57.397Z,2.97
2023-09-21T20:16:24.216Z,2.90
2023-09-21T20:18:50.161Z,2.65
2023-09-21T20:21:16.127Z,1.90
2023-09-21T20:23:42.209Z,2.70
2023-09-21T20:26:08.155Z,1.98
2023-09-21T20:28:34.166Z,2.90
2023-09-21T20:31:00.542Z,2.60
2023-09-21T20:33:27.305Z,2.33
2023-09-21T20:35:56.413Z,2.08
2023-09-21T20:38:22.327Z,2.88
2023-09-21T20:40:48.344Z,2.90
2023-09-21T20:43:14.265Z,1.75
2023-09-21T20:45:40.235Z,1.73
2023-09-21T20:48:08.059Z,2.22
2023-09-21T20:50:33.986Z,2.22
2023-09-21T20:52:59.903Z,3.65
2023-09-21T20:55:25.742Z,1.92
2023-09-21T20:57:51.552Z,2.13
2023-09-21T21:00:18.474Z,2.30
2023-09-21T21:02:45.420Z,1.95
2023-09-21T21:05:12.359Z,2.80
2023-09-21T21:07:38.872Z,1.80
2023-09-21T21:10:05.622Z,2.35
2023-09-21T21:12:32.369Z,2.38
2023-09-21T21:15:00.112Z,2.05
2023-09-21T21:17:26.503Z,2.03
2023-09-21T21:19:52.381Z,2.45
2023-09-21T21:22:21.145Z,1.70
2023-09-21T21:24:46.943Z,2.00
2023-09-21T21:27:12.930Z,1.23
2023-09-21T21:29:38.822Z,2.85
2023-09-21T21:32:04.665Z,1.88
2023-09-21T21:34:30.520Z,1.52
2023-09-21T21:36:59.185Z,1.73
2023-09-21T21:39:25.074Z,2.13
2023-09-21T21:41:50.911Z,1.85
2023-09-21T21:44:16.733Z,1.50
2023-09-21T21:46:42.891Z,1.77
2023-09-21T21:49:08.711Z,1.75
2023-09-21T21:51:34.675Z,1.50
2023-09-21T21:54:00.585Z,1.83
2023-09-21T21:56:26.400Z,1.33
2023-09-21T21:58:52.443Z,1.20
2023-09-21T22:01:18.335Z,2.17
2023-09-21T22:03:44.900Z,0.85
2023-09-21T22:06:12.641Z,1.85
2023-09-21T22:08:39.004Z,2.03
2023-09-21T22:11:06.222Z,2.40
2023-09-21T22:13:38.313Z,2.03
2023-09-21T22:16:05.357Z,1.88
2023-09-21T22:18:31.824Z,2.15
2023-09-21T22:20:58.295Z,1.42
2023-09-21T22:23:25.200Z,1.88
2023-09-21T22:25:51.221Z,1.60
2023-09-21T22:28:17.083Z,1.30
2023-09-21T22:30:47.399Z,2.65
2023-09-21T22:33:13.387Z,2.10
2023-09-21T22:35:39.790Z,1.80
2023-09-21T22:38:14.693Z,1.70
2023-09-21T22:40:42.583Z,1.85
2023-09-21T22:43:09.949Z,1.63
2023-09-21T22:45:39.942Z,1.70
2023-09-21T22:48:07.062Z,1.10
2023-09-21T22:50:36.171Z,1.60
2023-09-21T22:53:02.210Z,1.45
2023-09-21T22:55:29.825Z,1.65
2023-09-21T22:57:55.758Z,1.70
2023-09-21T23:00:22.721Z,1.65
2023-09-21T23:02:49.168Z,2.13
2023-09-21T23:05:15.636Z,1.77
2023-09-21T23:07:43.354Z,1.63
2023-09-21T23:10:13.601Z,1.58
2023-09-21T23:12:43.628Z,1.40
2023-09-21T23:15:12.295Z,1.70
2023-09-21T23:20:14.014Z,1.95
2023-09-21T23:22:43.801Z,2.83
2023-09-21T23:25:10.204Z,1.40
2023-09-21T23:27:38.274Z,1.40
2023-09-21T23:30:06.335Z,2.15
2023-09-21T23:32:32.563Z,1.70
2023-09-21T23:34:58.553Z,1.83
2023-09-21T23:37:24.465Z,1.80
2023-09-21T23:39:51.322Z,1.85
2023-09-21T23:42:18.304Z,1.95
2023-09-21T23:44:45.875Z,1.65
2023-09-21T23:47:12.334Z,1.40
2023-09-21T23:49:38.932Z,1.73
2023-09-21T23:52:05.797Z,2.20
2023-09-21T23:54:33.505Z,1.70
2023-09-21T23:57:00.978Z,2.05
2023-09-21T23:59:28.638Z,2.53
